createdAt,value
2023-04-16T00:01:12.315Z,100249.81
2023-04-16T00:03:39.265Z,100259.19
2023-04-16T00:06:06.190Z,100255.38
2023-04-16T00:08:32.723Z,100262.56
2023-04-16T00:10:59.310Z,100258.69
2023-04-16T00:13:25.911Z,100268.06
2023-04-16T00:15:52.637Z,100271.34
2023-04-16T00:18:19.269Z,100265.31
2023-04-16T00:20:46.075Z,100266.44
2023-04-16T00:23:12.768Z,100264.75
2023-04-16T00:25:39.312Z,100264.25
2023-04-16T00:28:05.863Z,100265.63
2023-04-16T00:30:32.535Z,100267.25
2023-04-16T00:32:59.152Z,100260.13
2023-04-16T00:35:25.743Z,100269.19
2023-04-16T00:37:52.353Z,100272.47
2023-04-16T00:40:18.859Z,100274.09
2023-04-16T00:42:45.753Z,100265.31
2023-04-16T00:45:12.296Z,100266.94
2023-04-16T00:47:39.199Z,100266.94
2023-04-16T00:50:06.304Z,100262.81
2023-04-16T00:52:32.941Z,100264.19
2023-04-16T00:54:59.672Z,100259.56
2023-04-16T00:57:26.281Z,100251.88
2023-04-16T00:59:54.151Z,100250.78
2023-04-16T01:02:20.972Z,100253.78
2023-04-16T01:04:47.856Z,100250.47
2023-04-16T01:07:14.590Z,100254.88
2023-04-16T01:09:41.146Z,100249.91
2023-04-16T01:12:07.750Z,100258.75
2023-04-16T01:14:34.504Z,100262.88
2023-04-16T01:17:01.118Z,100263.19
2023-04-16T01:19:27.607Z,100261.22
2023-04-16T01:21:54.112Z,100257.09
2023-04-16T01:24:20.734Z,100257.63
2023-04-16T01:26:47.278Z,100257.38
2023-04-16T01:29:13.804Z,100254.34
2023-04-16T01:31:40.537Z,100260.94
2023-04-16T01:34:07.067Z,100256.00
2023-04-16T01:36:33.772Z,100246.66
2023-04-16T01:39:00.354Z,100249.13
2023-04-16T01:41:26.891Z,100246.38
2023-04-16T01:43:53.544Z,100253.53
2023-04-16T01:46:27.300Z,100247.75
2023-04-16T01:48:54.722Z,100249.69
2023-04-16T01:51:22.138Z,100251.59
2023-04-16T01:53:49.591Z,100259.03
2023-04-16T01:56:16.364Z,100257.38
2023-04-16T01:58:43.009Z,100251.88
2023-04-16T02:01:09.882Z,100257.63
2023-04-16T02:03:36.760Z,100260.94
2023-04-16T02:06:03.591Z,100274.44
2023-04-16T02:08:30.209Z,100270.31
2023-04-16T02:10:57.629Z,100280.00
2023-04-16T02:13:24.195Z,100285.19
2023-04-16T02:15:51.169Z,100275.88
2023-04-16T02:18:18.255Z,100284.66
2023-04-16T02:20:46.270Z,100282.44
2023-04-16T02:23:13.880Z,100283.81
2023-04-16T02:25:45.538Z,100276.94
2023-04-16T02:28:14.400Z,100278.88
2023-04-16T02:30:41.586Z,100275.31
2023-04-16T02:33:10.222Z,100276.69
2023-04-16T02:35:38.507Z,100273.09
2023-04-16T02:38:05.899Z,100266.78
2023-04-16T02:40:32.581Z,100266.22
2023-04-16T02:42:59.892Z,100265.97
2023-04-16T02:45:26.460Z,100263.50
2023-04-16T02:47:53.043Z,100257.69
2023-04-16T02:50:19.735Z,100256.31
2023-04-16T02:52:46.271Z,100257.69
2023-04-16T02:55:12.903Z,100261.56
2023-04-16T02:57:39.474Z,100258.25
2023-04-16T03:00:06.649Z,100256.06
2023-04-16T03:02:33.217Z,100261.81
2023-04-16T03:04:59.911Z,100263.75
2023-04-16T03:07:26.462Z,100263.50
2023-04-16T03:09:52.950Z,100264.31
2023-04-16T03:12:19.523Z,100263.75
2023-04-16T03:14:46.146Z,100266.78
2023-04-16T03:17:12.935Z,100267.06
2023-04-16T03:19:39.492Z,100261.28
2023-04-16T03:22:06.075Z,100259.38
2023-04-16T03:24:32.604Z,100258.53
2023-04-16T03:26:59.123Z,100254.41
2023-04-16T03:29:25.829Z,100256.63
2023-04-16T03:31:52.334Z,100259.06
2023-04-16T03:34:18.914Z,100261.00
2023-04-16T03:36:45.446Z,100256.63
2023-04-16T03:39:12.029Z,100267.31
2023-04-16T03:41:38.726Z,100261.00
2023-04-16T03:44:05.310Z,100260.47
2023-04-16T03:46:31.916Z,100268.72
2023-04-16T03:48:58.602Z,100264.84
2023-04-16T03:51:25.257Z,100257.69
2023-04-16T03:53:51.788Z,100265.94
2023-04-16T03:56:18.476Z,100266.22
2023-04-16T03:58:44.978Z,100272.25
2023-04-16T04:01:11.569Z,100280.25
2023-04-16T04:03:38.334Z,100284.09
2023-04-16T04:06:08.804Z,100291.50
2023-04-16T04:08:35.459Z,100286.84
2023-04-16T04:11:02.006Z,100296.22
2023-04-16T04:13:28.588Z,100302.28
2023-04-16T04:15:55.189Z,100295.94
2023-04-16T04:18:21.991Z,100307.50
2023-04-16T04:20:48.622Z,100303.09
2023-04-16T04:23:15.344Z,100310.25
2023-04-16T04:25:41.903Z,100314.13
2023-04-16T04:28:08.447Z,100309.16
2023-04-16T04:30:35.000Z,100313.00
2023-04-16T04:33:01.636Z,100308.81
2023-04-16T04:35:28.308Z,100316.00
2023-04-16T04:37:54.849Z,100318.19
2023-04-16T04:40:21.436Z,100325.28
2023-04-16T04:42:47.978Z,100325.28
2023-04-16T04:45:14.552Z,100330.22
2023-04-16T04:47:41.153Z,100330.13
2023-04-16T04:50:08.216Z,100327.25
2023-04-16T04:52:34.786Z,100331.47
2023-04-16T04:55:01.500Z,100325.00
2023-04-16T04:57:27.999Z,100331.25
2023-04-16T04:59:54.659Z,100324.59
2023-04-16T05:02:21.303Z,100326.13
2023-04-16T05:04:47.928Z,100336.66
2023-04-16T05:07:14.532Z,100336.75
2023-04-16T05:09:41.104Z,100337.25
2023-04-16T05:12:07.618Z,100346.88
2023-04-16T05:14:34.174Z,100348.66
2023-04-16T05:17:00.938Z,100347.69
2023-04-16T05:19:27.630Z,100353.59
2023-04-16T05:21:54.486Z,100345.69
2023-04-16T05:24:21.050Z,100340.28
2023-04-16T05:26:47.644Z,100339.31
2023-04-16T05:29:14.220Z,100352.56
2023-04-16T05:31:41.036Z,100346.53
2023-04-16T05:34:07.642Z,100351.63
2023-04-16T05:36:34.141Z,100344.75
2023-04-16T05:39:00.665Z,100353.44
2023-04-16T05:41:27.783Z,100354.81
2023-04-16T05:43:54.324Z,100346.38
2023-04-16T05:46:21.056Z,100348.94
2023-04-16T05:48:47.680Z,100346.88
2023-04-16T05:51:14.260Z,100343.59
2023-04-16T05:53:40.961Z,100348.94
2023-04-16T05:56:08.058Z,100349.69
2023-04-16T05:58:34.921Z,100355.75
2023-04-16T06:01:01.600Z,100350.16
2023-04-16T06:03:28.293Z,100354.56
2023-04-16T06:05:55.111Z,100351.56
2023-04-16T06:08:21.790Z,100355.56
2023-04-16T06:10:49.012Z,100359.25
2023-04-16T06:13:15.794Z,100364.28
2023-04-16T06:15:42.444Z,100364.22
2023-04-16T06:18:09.081Z,100369.38
2023-04-16T06:20:35.913Z,100372.91
2023-04-16T06:23:02.430Z,100370.00
2023-04-16T06:25:29.077Z,100376.06
2023-04-16T06:27:55.779Z,100368.03
2023-04-16T06:30:22.560Z,100372.00
2023-04-16T06:32:49.655Z,100380.69
2023-04-16T06:35:16.366Z,100371.50
2023-04-16T06:37:42.960Z,100364.22
2023-04-16T06:40:10.040Z,100359.59
2023-04-16T06:42:36.582Z,100365.56
2023-04-16T06:45:03.235Z,100366.53
2023-04-16T06:47:29.851Z,100371.56
2023-04-16T06:49:56.531Z,100360.56
2023-04-16T06:52:23.185Z,100374.78
2023-04-16T06:54:49.866Z,100382.00
2023-04-16T06:57:16.542Z,100383.63
2023-04-16T06:59:43.149Z,100382.53
2023-04-16T07:02:10.981Z,100388.19
2023-04-16T07:04:37.604Z,100392.38
2023-04-16T07:07:04.300Z,100393.84
2023-04-16T07:09:30.869Z,100393.97
2023-04-16T07:11:57.553Z,100386.66
2023-04-16T07:14:24.272Z,100387.09
2023-04-16T07:16:50.904Z,100385.69
2023-04-16T07:19:17.487Z,100384.72
2023-04-16T07:21:44.287Z,100381.06
2023-04-16T07:24:11.235Z,100385.44
2023-04-16T07:26:37.943Z,100386.09
2023-04-16T07:29:04.442Z,100383.09
2023-04-16T07:31:31.071Z,100382.38
2023-04-16T07:33:58.549Z,100378.59
2023-04-16T07:36:25.297Z,100385.31
2023-04-16T07:38:53.093Z,100379.53
2023-04-16T07:41:19.742Z,100391.25
2023-04-16T07:43:46.286Z,100385.72
2023-04-16T07:46:15.937Z,100380.84
2023-04-16T07:48:43.023Z,100381.22
2023-04-16T07:51:09.598Z,100377.66
2023-04-16T07:53:36.185Z,100373.72
2023-04-16T07:56:02.854Z,100375.66
2023-04-16T07:58:29.385Z,100372.69
2023-04-16T08:00:56.244Z,100382.22
2023-04-16T08:03:23.159Z,100382.47
2023-04-16T08:05:50.027Z,100377.88
2023-04-16T08:08:16.843Z,100374.47
2023-04-16T08:10:43.454Z,100378.25
2023-04-16T08:13:09.994Z,100377.38
2023-04-16T08:15:36.540Z,100376.06
2023-04-16T08:18:03.152Z,100375.44
2023-04-16T08:20:29.758Z,100387.09
2023-04-16T08:22:56.315Z,100373.03
2023-04-16T08:25:22.831Z,100375.44
2023-04-16T08:27:49.369Z,100382.41
2023-04-16T08:30:16.066Z,100372.69
2023-04-16T08:32:43.441Z,100374.53
2023-04-16T08:35:10.315Z,100371.69
2023-04-16T08:37:36.972Z,100366.59
2023-04-16T08:40:03.696Z,100373.38
2023-04-16T08:42:37.560Z,100368.69
2023-04-16T08:45:08.692Z,100375.13
2023-04-16T08:47:36.437Z,100373.13
2023-04-16T08:50:06.691Z,100367.84
2023-04-16T08:52:39.954Z,100377.13
2023-04-16T08:55:16.571Z,100372.31
2023-04-16T08:57:57.765Z,100366.97
2023-04-16T09:00:24.694Z,100368.44
2023-04-16T09:02:51.561Z,100375.56
2023-04-16T09:05:18.602Z,100373.88
2023-04-16T09:07:46.753Z,100373.78
2023-04-16T09:10:15.167Z,100367.81
2023-04-16T09:12:42.408Z,100370.69
2023-04-16T09:15:13.754Z,100360.13
2023-04-16T09:17:40.486Z,100372.97
2023-04-16T09:20:08.934Z,100375.53
2023-04-16T09:22:36.287Z,100369.19
2023-04-16T09:25:02.963Z,100372.03
2023-04-16T09:27:30.548Z,100376.06
2023-04-16T09:29:57.236Z,100382.00
2023-04-16T09:32:28.957Z,100372.94
2023-04-16T09:35:00.433Z,100365.53
2023-04-16T09:37:31.069Z,100369.47
2023-04-16T09:39:59.707Z,100365.59
2023-04-16T09:42:31.780Z,100367.63
2023-04-16T09:45:01.381Z,100359.63
2023-04-16T09:47:45.894Z,100361.97
2023-04-16T09:50:18.618Z,100357.53
2023-04-16T09:52:48.831Z,100348.75
2023-04-16T09:55:15.368Z,100350.38
2023-04-16T09:57:41.970Z,100351.19
2023-04-16T10:00:10.522Z,100347.09
2023-04-16T10:02:40.775Z,100345.28
2023-04-16T10:05:07.912Z,100345.44
2023-04-16T10:07:36.362Z,100336.75
2023-04-16T10:10:04.015Z,100338.59
2023-04-16T10:12:31.128Z,100334.81
2023-04-16T10:14:57.723Z,100331.56
2023-04-16T10:17:25.277Z,100330.13
2023-04-16T10:19:53.845Z,100334.94
2023-04-16T10:22:20.497Z,100334.16
2023-04-16T10:24:47.735Z,100331.72
2023-04-16T10:27:14.353Z,100329.69
2023-04-16T10:29:41.348Z,100332.56
2023-04-16T10:32:08.212Z,100326.88
2023-04-16T10:34:35.304Z,100325.97
2023-04-16T10:37:01.997Z,100319.31
2023-04-16T10:39:28.937Z,100325.34
2023-04-16T10:42:15.756Z,100326.91
2023-04-16T10:44:45.302Z,100325.19
2023-04-16T10:47:13.328Z,100324.25
2023-04-16T10:49:41.216Z,100319.09
2023-04-16T10:52:12.869Z,100314.63
2023-04-16T10:54:40.109Z,100316.69
2023-04-16T10:57:17.165Z,100303.38
2023-04-16T10:59:44.621Z,100300.09
2023-04-16T11:02:17.175Z,100307.94
2023-04-16T11:04:46.052Z,100293.59
2023-04-16T11:07:12.656Z,100306.69
2023-04-16T11:09:56.365Z,100294.59
2023-04-16T11:12:24.549Z,100296.91
2023-04-16T11:15:02.885Z,100297.84
2023-04-16T11:17:33.451Z,100285.38
2023-04-16T11:20:00.099Z,100291.00
2023-04-16T11:22:27.191Z,100296.47
2023-04-16T11:24:55.761Z,100291.09
2023-04-16T11:27:23.547Z,100282.56
2023-04-16T11:30:07.209Z,100273.41
2023-04-16T11:32:35.064Z,100278.63
2023-04-16T11:35:02.929Z,100274.38
2023-04-16T11:37:36.557Z,100285.97
2023-04-16T11:40:05.041Z,100271.50
2023-04-16T11:42:31.660Z,100266.84
2023-04-16T11:44:59.927Z,100266.88
2023-04-16T11:47:27.540Z,100264.91
2023-04-16T11:49:54.181Z,100251.81
2023-04-16T11:52:32.215Z,100253.13
2023-04-16T11:54:59.559Z,100254.91
2023-04-16T11:57:30.708Z,100258.00
2023-04-16T12:00:02.186Z,100252.31
2023-04-16T12:02:44.707Z,100245.44
2023-04-16T12:05:33.807Z,100247.22
2023-04-16T12:08:09.363Z,100239.03
2023-04-16T12:10:38.147Z,100236.00
2023-04-16T12:13:12.255Z,100235.19
2023-04-16T12:15:52.735Z,100228.09
2023-04-16T12:18:21.674Z,100236.97
2023-04-16T12:20:48.847Z,100227.44
2023-04-16T12:23:30.153Z,100225.94
2023-04-16T12:25:57.374Z,100221.38
2023-04-16T12:28:34.144Z,100214.13
2023-04-16T12:31:02.120Z,100212.09
2023-04-16T12:33:29.110Z,100205.88
2023-04-16T12:35:55.799Z,100210.28
2023-04-16T12:38:24.444Z,100201.88
2023-04-16T12:40:51.900Z,100198.22
2023-04-16T12:43:18.632Z,100197.41
2023-04-16T12:45:45.181Z,100198.75
2023-04-16T12:48:11.761Z,100192.22
2023-04-16T12:50:38.371Z,100190.78
2023-04-16T12:53:05.058Z,100188.09
2023-04-16T12:55:31.631Z,100180.63
2023-04-16T12:57:58.187Z,100177.28
2023-04-16T13:00:24.884Z,100175.88
2023-04-16T13:02:51.574Z,100176.16
2023-04-16T13:05:18.317Z,100183.34
2023-04-16T13:07:45.228Z,100164.56
2023-04-16T13:10:12.196Z,100176.06
2023-04-16T13:12:38.795Z,100165.94
2023-04-16T13:15:05.638Z,100162.91
2023-04-16T13:17:32.406Z,100159.94
2023-04-16T13:19:59.040Z,100158.00
2023-04-16T13:22:25.617Z,100151.25
2023-04-16T13:24:52.154Z,100158.94
2023-04-16T13:27:18.688Z,100151.06
2023-04-16T13:29:46.142Z,100151.38
2023-04-16T13:32:12.786Z,100148.56
2023-04-16T13:34:39.678Z,100153.53
2023-04-16T13:37:06.347Z,100147.00
2023-04-16T13:39:33.711Z,100150.84
2023-04-16T13:42:00.495Z,100149.00
2023-04-16T13:44:27.234Z,100144.69
2023-04-16T13:46:53.905Z,100143.06
2023-04-16T13:49:20.474Z,100141.44
2023-04-16T13:51:47.103Z,100145.31
2023-04-16T13:54:13.775Z,100144.41
2023-04-16T13:56:40.482Z,100134.59
2023-04-16T13:59:07.704Z,100135.59
2023-04-16T14:01:34.644Z,100143.97
2023-04-16T14:04:01.985Z,100140.50
2023-04-16T14:06:28.582Z,100146.22
2023-04-16T14:08:55.130Z,100137.84
2023-04-16T14:11:21.868Z,100139.53
2023-04-16T14:13:48.483Z,100135.16
2023-04-16T14:16:15.252Z,100145.66
2023-04-16T14:18:41.797Z,100132.06
2023-04-16T14:21:08.863Z,100142.44
2023-04-16T14:23:35.533Z,100139.69
2023-04-16T14:26:02.081Z,100140.19
2023-04-16T14:28:28.675Z,100137.75
2023-04-16T14:30:55.211Z,100140.94
2023-04-16T14:33:21.745Z,100135.84
2023-04-16T14:35:48.288Z,100134.88
2023-04-16T14:38:14.893Z,100139.00
2023-04-16T14:40:41.405Z,100138.06
2023-04-16T14:43:07.917Z,100138.59
2023-04-16T14:45:34.510Z,100145.25
2023-04-16T14:48:01.081Z,100148.41
2023-04-16T14:50:27.816Z,100134.97
2023-04-16T14:52:54.459Z,100125.28
2023-04-16T14:55:21.182Z,100134.09
2023-04-16T14:57:47.793Z,100136.44
2023-04-16T15:00:14.750Z,100130.22
2023-04-16T15:02:41.559Z,100132.28
2023-04-16T15:05:08.792Z,100131.22
2023-04-16T15:07:35.372Z,100130.31
2023-04-16T15:10:02.309Z,100135.59
2023-04-16T15:12:28.969Z,100126.16
2023-04-16T15:14:55.626Z,100124.47
2023-04-16T15:17:22.559Z,100138.59
2023-04-16T15:19:49.252Z,100136.78
2023-04-16T15:22:15.864Z,100133.88
2023-04-16T15:24:42.470Z,100136.50
2023-04-16T15:27:11.628Z,100141.84
2023-04-16T15:29:38.649Z,100137.94
2023-04-16T15:32:05.367Z,100144.09
2023-04-16T15:34:31.926Z,100148.78
2023-04-16T15:36:58.562Z,100142.75
2023-04-16T15:39:25.169Z,100157.94
2023-04-16T15:44:21.358Z,100163.44
2023-04-16T15:46:47.931Z,100156.25
2023-04-16T15:49:14.788Z,100160.69
2023-04-16T15:51:41.368Z,100160.59
2023-04-16T15:54:07.968Z,100150.81
2023-04-16T15:56:34.671Z,100158.19
2023-04-16T15:59:01.297Z,100159.16
2023-04-16T16:01:27.892Z,100154.97
2023-04-16T16:03:54.680Z,100164.56
2023-04-16T16:06:21.432Z,100165.50
2023-04-16T16:08:48.131Z,100156.06
2023-04-16T16:11:14.859Z,100162.38
2023-04-16T16:13:41.532Z,100158.19
2023-04-16T16:16:08.191Z,100161.59
2023-04-16T16:18:34.822Z,100163.13
2023-04-16T16:21:01.496Z,100165.34
2023-04-16T16:23:28.109Z,100163.25
2023-04-16T16:25:54.684Z,100157.41
2023-04-16T16:28:21.307Z,100155.56
2023-04-16T16:30:47.817Z,100157.91
2023-04-16T16:33:15.294Z,100159.78
2023-04-16T16:35:42.162Z,100164.44
2023-04-16T16:38:08.870Z,100160.00
2023-04-16T16:40:35.439Z,100158.50
2023-04-16T16:43:02.063Z,100161.19
2023-04-16T16:45:28.661Z,100158.63
2023-04-16T16:47:55.279Z,100159.31
2023-04-16T16:50:22.018Z,100160.03
2023-04-16T16:52:48.669Z,100163.16
2023-04-16T16:55:15.426Z,100161.06
2023-04-16T16:57:42.983Z,100167.25
2023-04-16T17:00:10.448Z,100159.97
2023-04-16T17:02:37.818Z,100163.34
2023-04-16T17:05:05.514Z,100165.34
2023-04-16T17:07:32.163Z,100160.28
2023-04-16T17:10:01.614Z,100158.91
2023-04-16T17:12:29.622Z,100158.78
2023-04-16T17:14:56.260Z,100161.94
2023-04-16T17:17:22.898Z,100160.16
2023-04-16T17:19:49.582Z,100166.47
2023-04-16T17:22:16.205Z,100157.34
2023-04-16T17:24:42.854Z,100164.31
2023-04-16T17:27:09.399Z,100166.66
2023-04-16T17:29:35.972Z,100160.91
2023-04-16T17:32:02.667Z,100163.94
2023-04-16T17:34:29.369Z,100167.28
2023-04-16T17:36:55.866Z,100164.03
2023-04-16T17:39:22.420Z,100161.25
2023-04-16T17:41:49.017Z,100160.41
2023-04-16T17:44:15.966Z,100166.22
2023-04-16T17:46:42.912Z,100169.72
2023-04-16T17:49:09.504Z,100170.72
2023-04-16T17:51:36.122Z,100169.44
2023-04-16T17:54:02.641Z,100181.28
2023-04-16T17:56:29.233Z,100173.25
2023-04-16T17:58:55.866Z,100173.94
2023-04-16T18:01:22.420Z,100185.09
2023-04-16T18:03:49.139Z,100180.22
2023-04-16T18:06:15.870Z,100183.19
2023-04-16T18:08:42.473Z,100186.84
2023-04-16T18:11:09.235Z,100181.94
2023-04-16T18:13:35.841Z,100189.47
2023-04-16T18:16:02.811Z,100187.53
2023-04-16T18:18:29.528Z,100187.38
2023-04-16T18:20:56.109Z,100190.34
2023-04-16T18:23:22.618Z,100199.38
2023-04-16T18:25:49.238Z,100195.66
2023-04-16T18:28:15.797Z,100207.31
2023-04-16T18:30:42.824Z,100208.13
2023-04-16T18:33:26.369Z,100198.75
2023-04-16T18:35:56.110Z,100191.91
2023-04-16T18:38:22.720Z,100193.41
2023-04-16T18:40:49.309Z,100190.69
2023-04-16T18:43:19.021Z,100188.69
2023-04-16T18:45:45.690Z,100186.59
2023-04-16T18:48:12.228Z,100198.56
2023-04-16T18:50:38.809Z,100193.16
2023-04-16T18:53:05.404Z,100198.75
2023-04-16T18:55:32.048Z,100193.34
2023-04-16T18:57:58.584Z,100181.56
2023-04-16T19:00:25.134Z,100183.69
2023-04-16T19:02:51.758Z,100190.31
2023-04-16T19:05:18.508Z,100193.41
2023-04-16T19:07:45.176Z,100183.75
2023-04-16T19:10:11.773Z,100183.28
2023-04-16T19:12:38.314Z,100189.53
2023-04-16T19:15:07.552Z,100191.34
2023-04-16T19:17:34.146Z,100182.31
2023-04-16T19:20:00.723Z,100182.84
2023-04-16T19:22:27.376Z,100180.25
2023-04-16T19:24:53.984Z,100188.59
2023-04-16T19:27:20.654Z,100181.72
2023-04-16T19:29:47.182Z,100184.88
2023-04-16T19:32:14.279Z,100189.59
2023-04-16T19:34:41.165Z,100187.03
2023-04-16T19:37:07.717Z,100195.09
2023-04-16T19:39:34.243Z,100210.72
2023-04-16T19:42:00.742Z,100211.59
2023-04-16T19:44:27.344Z,100210.28
2023-04-16T19:46:53.924Z,100206.03
2023-04-16T19:49:20.421Z,100220.16
2023-04-16T19:51:46.996Z,100208.78
2023-04-16T19:54:15.852Z,100213.25
2023-04-16T19:56:42.553Z,100213.06
2023-04-16T19:59:09.594Z,100207.69
2023-04-16T20:01:36.404Z,100196.00
2023-04-16T20:04:03.072Z,100193.03
2023-04-16T20:06:29.766Z,100194.19
2023-04-16T20:08:56.591Z,100191.91
2023-04-16T20:11:23.116Z,100199.59
2023-04-16T20:13:49.685Z,100198.28
2023-04-16T20:16:16.265Z,100191.44
2023-04-16T20:18:42.948Z,100201.28
2023-04-16T20:21:09.997Z,100190.94
2023-04-16T20:23:36.601Z,100183.06
2023-04-16T20:26:03.174Z,100171.72
2023-04-16T20:28:29.824Z,100170.75
2023-04-16T20:30:56.378Z,100178.13
2023-04-16T20:33:22.924Z,100186.16
2023-04-16T20:35:49.461Z,100184.84
2023-04-16T20:38:16.140Z,100170.72
2023-04-16T20:40:42.672Z,100175.31
2023-04-16T20:43:09.185Z,100179.09
2023-04-16T20:45:35.898Z,100169.25
2023-04-16T20:48:02.523Z,100174.47
2023-04-16T20:50:29.042Z,100165.78
2023-04-16T20:52:55.974Z,100166.59
2023-04-16T20:55:22.544Z,100169.38
2023-04-16T20:57:49.173Z,100169.53
2023-04-16T21:00:16.058Z,100154.94
2023-04-16T21:02:43.538Z,100150.53
2023-04-16T21:05:10.807Z,100154.00
2023-04-16T21:07:37.399Z,100160.38
2023-04-16T21:10:04.171Z,100164.34
2023-04-16T21:12:30.845Z,100161.06
2023-04-16T21:14:57.436Z,100165.81
2023-04-16T21:17:24.011Z,100164.19
2023-04-16T21:19:50.642Z,100168.78
2023-04-16T21:22:17.285Z,100163.22
2023-04-16T21:24:43.824Z,100160.09
2023-04-16T21:27:10.383Z,100162.41
2023-04-16T21:29:36.982Z,100162.72
2023-04-16T21:32:03.578Z,100160.44
2023-04-16T21:34:30.171Z,100155.06
2023-04-16T21:36:56.668Z,100160.47
2023-04-16T21:39:23.216Z,100166.88
2023-04-16T21:41:49.856Z,100161.00
2023-04-16T21:44:16.432Z,100162.94
2023-04-16T21:46:43.000Z,100161.63
2023-04-16T21:49:10.020Z,100159.03
2023-04-16T21:51:38.207Z,100162.00
2023-04-16T21:54:05.884Z,100164.78
2023-04-16T21:56:32.571Z,100157.09
2023-04-16T21:58:59.171Z,100158.22
2023-04-16T22:01:25.821Z,100158.72
2023-04-16T22:03:52.710Z,100159.56
2023-04-16T22:06:19.443Z,100160.38
2023-04-16T22:08:46.284Z,100167.91
2023-04-16T22:11:12.843Z,100168.56
2023-04-16T22:13:39.500Z,100170.03
2023-04-16T22:16:07.495Z,100168.06
2023-04-16T22:18:34.876Z,100163.00
2023-04-16T22:21:01.418Z,100164.97
2023-04-16T22:23:28.083Z,100164.63
2023-04-16T22:25:55.641Z,100158.91
2023-04-16T22:28:22.702Z,100163.00
2023-04-16T22:30:49.450Z,100161.19
2023-04-16T22:33:16.002Z,100167.91
2023-04-16T22:35:42.537Z,100166.59
2023-04-16T22:38:09.182Z,100170.38
2023-04-16T22:40:35.850Z,100166.44
2023-04-16T22:43:02.455Z,100163.97
2023-04-16T22:45:29.076Z,100157.59
2023-04-16T22:47:55.786Z,100160.72
2023-04-16T22:50:22.387Z,100161.53
2023-04-16T22:52:48.885Z,100158.09
2023-04-16T22:55:15.441Z,100159.56
2023-04-16T22:57:42.015Z,100158.03
2023-04-16T23:00:09.015Z,100160.00
2023-04-16T23:02:35.727Z,100154.59
2023-04-16T23:05:02.305Z,100150.34
2023-04-16T23:07:28.858Z,100153.13
2023-04-16T23:09:55.504Z,100153.94
2023-04-16T23:12:22.037Z,100145.25
2023-04-16T23:14:48.603Z,100148.53
2023-04-16T23:17:15.172Z,100145.25
2023-04-16T23:19:41.739Z,100143.81
2023-04-16T23:22:08.314Z,100145.25
2023-04-16T23:24:34.883Z,100146.72
2023-04-16T23:27:01.539Z,100147.56
2023-04-16T23:29:28.137Z,100142.47
2023-04-16T23:31:54.659Z,100139.88
2023-04-16T23:34:21.279Z,100138.88
2023-04-16T23:36:47.911Z,100141.50
2023-04-16T23:39:14.499Z,100137.09
2023-04-16T23:41:41.122Z,100125.97
2023-04-16T23:44:07.763Z,100125.97
2023-04-16T23:46:34.309Z,100129.88
2023-04-16T23:49:00.955Z,100115.78
2023-04-16T23:51:27.474Z,100118.09
2023-04-16T23:53:54.093Z,100125.97
2023-04-16T23:56:20.710Z,100125.13
2023-04-16T23:58:47.295Z,100127.09
